createdAt,value
2023-04-05T00:01:14.750Z,95233.91
2023-04-05T00:03:48.945Z,95233.16
2023-04-05T00:06:36.658Z,95231.38
2023-04-05T00:09:17.769Z,95232.19
2023-04-05T00:12:11.694Z,95227.16
2023-04-05T00:14:58.751Z,95230.50
2023-04-05T00:17:31.817Z,95225.41
2023-04-05T00:20:18.695Z,95235.34
2023-04-05T00:22:51.804Z,95227.78
2023-04-05T00:25:38.678Z,95230.28
2023-04-05T00:28:11.932Z,95225.31
2023-04-05T00:30:59.698Z,95226.16
2023-04-05T00:33:32.820Z,95224.47
2023-04-05T00:36:23.714Z,95234.53
2023-04-05T00:38:56.869Z,95234.50
2023-04-05T00:41:43.699Z,95230.28
2023-04-05T00:44:16.840Z,95235.28
2023-04-05T00:47:03.704Z,95234.53
2023-04-05T00:49:45.726Z,95231.94
2023-04-05T00:52:39.689Z,95233.63
2023-04-05T00:55:33.701Z,95235.28
2023-04-05T00:58:21.719Z,95220.31
2023-04-05T01:01:12.778Z,95222.81
2023-04-05T01:04:09.759Z,95211.97
2023-04-05T01:07:30.715Z,95214.25
2023-04-05T01:10:13.715Z,95215.94
2023-04-05T01:13:01.698Z,95213.53
2023-04-05T01:15:34.856Z,95216.84
2023-04-05T01:18:21.718Z,95210.91
2023-04-05T01:21:08.734Z,95215.75
2023-04-05T01:24:31.696Z,95206.50
2023-04-05T01:27:17.995Z,95211.53
2023-04-05T01:30:22.968Z,95210.75
2023-04-05T01:33:33.892Z,95207.19
2023-04-05T01:36:35.947Z,95203.00
2023-04-05T01:39:20.765Z,95208.09
2023-04-05T01:42:06.081Z,95202.31
2023-04-05T01:44:45.704Z,95202.31
2023-04-05T01:47:25.961Z,95208.09
2023-04-05T01:50:05.712Z,95195.44
2023-04-05T01:52:52.796Z,95197.16
2023-04-05T01:55:47.053Z,95205.50
2023-04-05T01:58:40.793Z,95201.31
2023-04-05T02:01:34.766Z,95196.34
2023-04-05T02:04:21.797Z,95196.31
2023-04-05T02:06:54.860Z,95198.75
2023-04-05T02:09:41.952Z,95194.53
2023-04-05T02:12:14.908Z,95185.25
2023-04-05T02:15:01.730Z,95190.13
2023-04-05T02:17:40.072Z,95181.00
2023-04-05T02:20:26.732Z,95193.59
2023-04-05T02:23:00.662Z,95196.16
2023-04-05T02:25:47.837Z,95191.00
2023-04-05T02:28:20.918Z,95191.84
2023-04-05T02:31:07.830Z,95192.53
2023-04-05T02:33:40.921Z,95192.47
2023-04-05T02:36:28.760Z,95186.63
2023-04-05T02:39:01.919Z,95190.81
2023-04-05T02:41:48.723Z,95188.44
2023-04-05T02:44:31.544Z,95180.00
2023-04-05T02:47:18.732Z,95188.44
2023-04-05T02:49:58.755Z,95186.75
2023-04-05T02:52:52.837Z,95191.72
2023-04-05T02:55:40.726Z,95182.44
2023-04-05T02:58:14.918Z,95184.91
2023-04-05T03:01:02.762Z,95189.03
2023-04-05T03:03:42.794Z,95188.91
2023-04-05T03:06:37.831Z,95181.38
2023-04-05T03:09:33.877Z,95183.75
2023-04-05T03:12:20.752Z,95183.75
2023-04-05T03:15:00.847Z,95176.97
2023-04-05T03:17:57.906Z,95182.66
2023-04-05T03:20:52.786Z,95180.91
2023-04-05T03:23:46.786Z,95175.88
2023-04-05T03:26:33.807Z,95180.78
2023-04-05T03:29:13.843Z,95182.50
2023-04-05T03:32:07.787Z,95183.34
2023-04-05T03:35:01.737Z,95180.78
2023-04-05T03:37:48.777Z,95175.66
2023-04-05T03:40:22.027Z,95179.06
2023-04-05T03:43:08.781Z,95174.75
2023-04-05T03:45:41.984Z,95174.69
2023-04-05T03:48:28.782Z,95178.06
2023-04-05T03:51:08.778Z,95173.09
2023-04-05T03:54:03.782Z,95179.84
2023-04-05T03:56:50.772Z,95182.34
2023-04-05T03:59:44.782Z,95190.63
2023-04-05T04:02:31.911Z,95191.38
2023-04-05T04:05:06.503Z,95191.31
2023-04-05T04:07:53.788Z,95187.19
2023-04-05T04:10:26.907Z,95190.53
2023-04-05T04:13:13.794Z,95189.72
2023-04-05T04:15:47.000Z,95193.03
2023-04-05T04:18:33.787Z,95193.03
2023-04-05T04:21:19.902Z,95197.28
2023-04-05T04:24:07.815Z,95203.16
2023-04-05T04:26:41.098Z,95204.00
2023-04-05T04:29:40.693Z,95196.47
2023-04-05T04:32:13.881Z,95199.97
2023-04-05T04:35:00.782Z,95207.63
2023-04-05T04:37:37.598Z,95209.44
2023-04-05T04:40:24.770Z,95207.94
2023-04-05T04:43:00.156Z,95213.63
2023-04-05T04:45:46.808Z,95210.34
2023-04-05T04:48:21.109Z,95219.72
2023-04-05T04:51:08.773Z,95211.50
2023-04-05T04:53:41.902Z,95216.59
2023-04-05T04:56:28.791Z,95209.06
2023-04-05T04:59:02.890Z,95210.97
2023-04-05T05:01:51.848Z,95209.47
2023-04-05T05:04:25.021Z,95212.72
2023-04-05T05:07:12.813Z,95209.41
2023-04-05T05:09:46.054Z,95213.72
2023-04-05T05:12:33.808Z,95218.88
2023-04-05T05:15:13.802Z,95217.28
2023-04-05T05:18:04.816Z,95219.94
2023-04-05T05:20:38.002Z,95218.41
2023-04-05T05:23:24.808Z,95217.56
2023-04-05T05:26:03.885Z,95215.16
2023-04-05T05:28:50.871Z,95212.84
2023-04-05T05:31:30.920Z,95208.06
2023-04-05T05:34:25.826Z,95215.69
2023-04-05T05:37:13.813Z,95204.19
2023-04-05T05:39:53.856Z,95208.56
2023-04-05T05:42:40.813Z,95214.50
2023-04-05T05:45:21.929Z,95214.78
2023-04-05T05:48:15.811Z,95219.09
2023-04-05T05:51:03.841Z,95215.09
2023-04-05T05:53:43.923Z,95216.13
2023-04-05T05:56:30.797Z,95213.03
2023-04-05T05:59:11.053Z,95209.31
2023-04-05T06:02:04.945Z,95207.41
2023-04-05T06:04:51.876Z,95201.34
2023-04-05T06:07:24.989Z,95206.22
2023-04-05T06:10:12.897Z,95204.44
2023-04-05T06:12:47.422Z,95213.16
2023-04-05T06:15:33.900Z,95203.88
2023-04-05T06:18:06.977Z,95219.03
2023-04-05T06:20:53.855Z,95201.16
2023-04-05T06:23:26.922Z,95213.28
2023-04-05T06:26:13.855Z,95210.38
2023-04-05T06:28:49.969Z,95220.94
2023-04-05T06:31:41.879Z,95219.69
2023-04-05T06:34:14.989Z,95218.31
2023-04-05T06:37:02.801Z,95215.91
2023-04-05T06:39:43.897Z,95218.16
2023-04-05T06:42:38.808Z,95222.31
2023-04-05T06:45:26.824Z,95200.41
2023-04-05T06:48:00.040Z,95208.50
2023-04-05T06:50:47.863Z,95202.75
2023-04-05T06:53:20.977Z,95208.97
2023-04-05T06:56:07.809Z,95212.84
2023-04-05T06:58:41.393Z,95208.91
2023-04-05T07:01:27.960Z,95209.09
2023-04-05T07:04:07.934Z,95214.38
2023-04-05T07:07:01.881Z,95209.66
2023-04-05T07:09:48.847Z,95199.63
2023-04-05T07:12:22.170Z,95230.44
2023-04-05T07:15:08.814Z,95216.72
2023-04-05T07:17:42.058Z,95212.09
2023-04-05T07:20:28.814Z,95223.66
2023-04-05T07:23:08.838Z,95223.16
2023-04-05T07:25:55.856Z,95217.88
2023-04-05T07:28:36.130Z,95223.91
2023-04-05T07:31:29.855Z,95220.53
2023-04-05T07:34:23.867Z,95215.63
2023-04-05T07:37:19.848Z,95217.44
2023-04-05T07:40:06.877Z,95223.19
2023-04-05T07:42:39.950Z,95223.84
2023-04-05T07:45:28.704Z,95213.84
2023-04-05T07:48:09.980Z,95211.66
2023-04-05T07:51:03.861Z,95216.69
2023-04-05T07:53:45.955Z,95213.91
2023-04-05T07:56:25.854Z,95214.75
2023-04-05T07:59:05.871Z,95207.09
2023-04-05T08:02:04.944Z,95209.88
2023-04-05T08:04:54.908Z,95213.06
2023-04-05T08:07:29.947Z,95208.31
2023-04-05T08:10:19.868Z,95208.50
2023-04-05T08:12:54.993Z,95208.06
2023-04-05T08:15:41.898Z,95200.44
2023-04-05T08:18:14.964Z,95207.25
2023-04-05T08:21:02.888Z,95206.56
2023-04-05T08:23:42.902Z,95201.72
2023-04-05T08:26:29.854Z,95203.19
2023-04-05T08:29:02.960Z,95198.56
2023-04-05T08:31:49.907Z,95203.44
2023-04-05T08:34:22.956Z,95200.25
2023-04-05T08:37:10.154Z,95197.19
2023-04-05T08:39:43.958Z,95184.03
2023-04-05T08:42:40.879Z,95203.13
2023-04-05T08:45:23.859Z,95191.63
2023-04-05T08:48:18.895Z,95193.41
2023-04-05T08:51:05.942Z,95199.00
2023-04-05T08:53:46.884Z,95198.66
2023-04-05T08:56:38.908Z,95201.06
2023-04-05T08:59:17.070Z,95209.84
2023-04-05T09:02:04.892Z,95210.88
2023-04-05T09:04:44.968Z,95201.38
2023-04-05T09:07:36.886Z,95207.91
2023-04-05T09:10:19.932Z,95216.34
2023-04-05T09:13:06.940Z,95222.50
2023-04-05T09:15:43.044Z,95205.47
2023-04-05T09:18:29.971Z,95209.66
2023-04-05T09:21:11.169Z,95215.06
2023-04-05T09:24:02.898Z,95215.63
2023-04-05T09:26:36.180Z,95208.13
2023-04-05T09:29:36.939Z,95205.81
2023-04-05T09:32:17.910Z,95209.78
2023-04-05T09:35:12.929Z,95207.19
2023-04-05T09:38:10.901Z,95206.19
2023-04-05T09:41:08.941Z,95206.00
2023-04-05T09:44:04.929Z,95199.78
2023-04-05T09:46:51.925Z,95203.66
2023-04-05T09:49:40.076Z,95205.25
2023-04-05T09:52:32.898Z,95202.47
2023-04-05T09:55:17.999Z,95204.72
2023-04-05T09:58:14.890Z,95207.75
2023-04-05T10:01:13.881Z,95211.09
2023-04-05T10:04:03.139Z,95207.78
2023-04-05T10:06:50.978Z,95195.53
2023-04-05T10:09:30.966Z,95196.84
2023-04-05T10:12:24.901Z,95211.41
2023-04-05T10:14:58.032Z,95200.19
2023-04-05T10:17:50.913Z,95199.97
2023-04-05T10:20:26.058Z,95198.44
2023-04-05T10:23:30.922Z,95197.81
2023-04-05T10:26:16.123Z,95205.03
2023-04-05T10:29:09.913Z,95185.78
2023-04-05T10:31:59.050Z,95184.53
2023-04-05T10:35:03.049Z,95192.19
2023-04-05T10:38:17.972Z,95181.06
2023-04-05T10:41:32.920Z,95193.63
2023-04-05T10:44:26.245Z,95184.41
2023-04-05T10:47:08.963Z,95185.03
2023-04-05T10:50:09.910Z,95195.75
2023-04-05T10:52:58.943Z,95193.72
2023-04-05T10:55:32.990Z,95195.13
2023-04-05T10:58:27.947Z,95188.97
2023-04-05T11:01:23.947Z,95199.22
2023-04-05T11:04:23.887Z,95192.28
2023-04-05T11:07:21.416Z,95184.75
2023-04-05T11:10:09.953Z,95192.59
2023-04-05T11:13:03.024Z,95184.66
2023-04-05T11:15:49.920Z,95184.63
2023-04-05T11:18:29.923Z,95176.19
2023-04-05T11:21:23.928Z,95189.44
2023-04-05T11:24:19.110Z,95185.16
2023-04-05T11:26:55.151Z,95189.53
2023-04-05T11:29:56.939Z,95179.56
2023-04-05T11:32:31.099Z,95189.81
2023-04-05T11:35:22.962Z,95185.78
2023-04-05T11:38:20.925Z,95188.38
2023-04-05T11:41:27.944Z,95189.94
2023-04-05T11:44:27.868Z,95193.69
2023-04-05T11:47:15.872Z,95194.78
2023-04-05T11:49:55.861Z,95198.13
2023-04-05T11:52:49.884Z,95183.72
2023-04-05T11:55:44.045Z,95184.25
2023-04-05T11:58:38.895Z,95195.09
2023-04-05T12:01:25.868Z,95186.47
2023-04-05T12:04:10.890Z,95201.19
2023-04-05T12:07:24.895Z,95184.03
2023-04-05T12:10:22.888Z,95182.13
2023-04-05T12:13:16.946Z,95186.19
2023-04-05T12:16:14.923Z,95181.75
2023-04-05T12:19:09.922Z,95181.66
2023-04-05T12:22:03.924Z,95189.97
2023-04-05T12:24:57.890Z,95192.38
2023-04-05T12:27:45.884Z,95183.72
2023-04-05T12:30:21.138Z,95184.53
2023-04-05T12:33:15.893Z,95185.25
2023-04-05T12:35:49.016Z,95180.28
2023-04-05T12:38:36.895Z,95186.47
2023-04-05T12:41:10.996Z,95185.91
2023-04-05T12:44:03.246Z,95186.88
2023-04-05T12:47:00.906Z,95189.25
2023-04-05T12:49:47.923Z,95188.28
2023-04-05T12:52:33.906Z,95185.75
2023-04-05T12:55:23.919Z,95186.47
2023-04-05T12:58:00.985Z,95187.34
2023-04-05T13:00:48.896Z,95187.25
2023-04-05T13:03:24.148Z,95189.75
2023-04-05T13:06:10.904Z,95197.28
2023-04-05T13:08:50.894Z,95199.78
2023-04-05T13:11:44.902Z,95201.31
2023-04-05T13:14:32.938Z,95191.84
2023-04-05T13:17:12.912Z,95196.84
2023-04-05T13:19:59.888Z,95190.00
2023-04-05T13:22:33.129Z,95187.56
2023-04-05T13:25:20.902Z,95192.66
2023-04-05T13:27:54.082Z,95181.66
2023-04-05T13:30:40.898Z,95188.41
2023-04-05T13:33:22.896Z,95184.38
2023-04-05T13:36:17.935Z,95190.19
2023-04-05T13:39:12.935Z,95186.53
2023-04-05T13:42:00.993Z,95185.69
2023-04-05T13:44:35.048Z,95183.13
2023-04-05T13:47:22.943Z,95189.56
2023-04-05T13:50:21.611Z,95190.19
2023-04-05T13:53:08.951Z,95183.47
2023-04-05T13:55:42.441Z,95186.78
2023-04-05T13:58:29.947Z,95179.09
2023-04-05T14:01:03.834Z,95181.50
2023-04-05T14:03:51.045Z,95179.72
2023-04-05T14:06:24.461Z,95180.50
2023-04-05T14:09:12.944Z,95173.66
2023-04-05T14:11:54.910Z,95175.47
2023-04-05T14:14:37.020Z,95169.84
2023-04-05T14:17:19.012Z,95173.47
2023-04-05T14:19:59.097Z,95179.44
2023-04-05T14:22:38.947Z,95171.09
2023-04-05T14:25:19.098Z,95187.75
2023-04-05T14:27:58.944Z,95189.94
2023-04-05T14:30:39.193Z,95178.81
2023-04-05T14:33:20.935Z,95177.22
2023-04-05T14:36:01.209Z,95175.63
2023-04-05T14:38:40.944Z,95179.06
2023-04-05T14:41:34.963Z,95192.63
2023-04-05T14:44:28.957Z,95179.94
2023-04-05T14:47:15.941Z,95184.91
2023-04-05T14:49:49.047Z,95179.78
2023-04-05T14:52:36.944Z,95172.13
2023-04-05T14:55:10.127Z,95176.38
2023-04-05T14:57:56.939Z,95178.09
2023-04-05T15:00:30.147Z,95183.16
2023-04-05T15:03:17.035Z,95183.16
2023-04-05T15:05:50.147Z,95187.25
2023-04-05T15:08:36.993Z,95194.00
2023-04-05T15:11:12.497Z,95192.13
2023-04-05T15:13:59.017Z,95189.63
2023-04-05T15:16:33.156Z,95188.91
2023-04-05T15:19:19.957Z,95192.28
2023-04-05T15:21:53.067Z,95191.44
2023-04-05T15:24:39.941Z,95192.13
2023-04-05T15:27:13.052Z,95192.09
2023-04-05T15:29:59.983Z,95194.66
2023-04-05T15:32:39.970Z,95200.53
2023-04-05T15:35:33.980Z,95202.28
2023-04-05T15:38:20.943Z,95199.69
2023-04-05T15:40:54.618Z,95198.84
2023-04-05T15:43:40.943Z,95197.97
2023-04-05T15:46:14.123Z,95201.28
2023-04-05T15:49:08.731Z,95205.44
2023-04-05T15:51:50.996Z,95212.13
2023-04-05T15:54:38.013Z,95207.00
2023-04-05T15:57:11.088Z,95204.53
2023-04-05T15:59:58.991Z,95196.13
2023-04-05T16:02:39.198Z,95197.72
2023-04-05T16:05:25.931Z,95202.69
2023-04-05T16:07:59.581Z,95209.44
2023-04-05T16:10:45.952Z,95206.03
2023-04-05T16:13:26.012Z,95207.69
2023-04-05T16:16:30.076Z,95206.75
2023-04-05T16:19:24.946Z,95208.19
2023-04-05T16:22:05.007Z,95207.31
2023-04-05T16:24:51.965Z,95198.97
2023-04-05T16:27:31.976Z,95203.91
2023-04-05T16:30:26.082Z,95198.91
2023-04-05T16:33:13.028Z,95201.41
2023-04-05T16:35:55.093Z,95204.72
2023-04-05T16:38:34.992Z,95197.97
2023-04-05T16:41:21.951Z,95206.31
2023-04-05T16:44:16.999Z,95207.97
2023-04-05T16:47:04.010Z,95200.47
2023-04-05T16:49:37.120Z,95203.81
2023-04-05T16:52:23.965Z,95210.50
2023-04-05T16:55:04.009Z,95209.53
2023-04-05T16:57:51.021Z,95211.94
2023-04-05T17:00:32.998Z,95209.38
2023-04-05T17:03:20.083Z,95206.84
2023-04-05T17:06:00.046Z,95216.84
2023-04-05T17:08:53.948Z,95210.03
2023-04-05T17:11:47.963Z,95214.88
2023-04-05T17:14:35.018Z,95209.00
2023-04-05T17:17:08.081Z,95219.88
2023-04-05T17:19:55.021Z,95216.41
2023-04-05T17:22:28.158Z,95218.88
2023-04-05T17:25:17.279Z,95219.66
2023-04-05T17:27:50.145Z,95221.34
2023-04-05T17:30:37.954Z,95219.66
2023-04-05T17:33:17.971Z,95220.50
2023-04-05T17:36:11.986Z,95219.66
2023-04-05T17:38:59.001Z,95222.22
2023-04-05T17:41:32.088Z,95222.22
2023-04-05T17:44:19.050Z,95222.97
2023-04-05T17:47:05.362Z,95228.78
2023-04-05T17:49:55.010Z,95224.53
2023-04-05T17:52:28.271Z,95226.13
2023-04-05T17:55:14.999Z,95226.06
2023-04-05T17:57:48.158Z,95231.03
2023-04-05T18:00:35.030Z,95231.00
2023-04-05T18:03:08.671Z,95228.44
2023-04-05T18:05:58.999Z,95231.75
2023-04-05T18:08:39.020Z,95239.34
2023-04-05T18:11:25.978Z,95237.66
2023-04-05T18:14:05.998Z,95241.00
2023-04-05T18:16:53.091Z,95236.78
2023-04-05T18:19:26.101Z,95235.84
2023-04-05T18:22:13.009Z,95237.47
2023-04-05T18:24:52.992Z,95240.84
2023-04-05T18:27:40.008Z,95240.81
2023-04-05T18:30:14.099Z,95245.00
2023-04-05T18:33:01.091Z,95245.81
2023-04-05T18:35:34.307Z,95249.22
2023-04-05T18:38:21.216Z,95246.69
2023-04-05T18:40:55.110Z,95245.03
2023-04-05T18:43:41.977Z,95245.91
2023-04-05T18:46:18.601Z,95245.03
2023-04-05T18:49:06.178Z,95242.56
2023-04-05T18:51:40.081Z,95244.22
2023-04-05T18:54:27.005Z,95241.66
2023-04-05T18:57:06.997Z,95235.75
2023-04-05T19:00:01.008Z,95242.50
2023-04-05T19:02:48.116Z,95234.06
2023-04-05T19:05:21.124Z,95234.06
2023-04-05T19:08:08.003Z,95236.56
2023-04-05T19:10:41.116Z,95239.97
2023-04-05T19:13:28.053Z,95226.50
2023-04-05T19:16:08.051Z,95231.53
2023-04-05T19:19:02.015Z,95233.22
2023-04-05T19:21:56.015Z,95222.31
2023-04-05T19:24:43.047Z,95224.75
2023-04-05T19:27:16.221Z,95232.22
2023-04-05T19:30:03.999Z,95226.31
2023-04-05T19:32:37.149Z,95228.03
2023-04-05T19:35:25.011Z,95221.25
2023-04-05T19:37:58.130Z,95223.00
2023-04-05T19:40:52.008Z,95224.66
2023-04-05T19:43:39.996Z,95216.28
2023-04-05T19:46:15.491Z,95212.88
2023-04-05T19:49:07.356Z,95211.19
2023-04-05T19:51:42.443Z,95212.94
2023-04-05T19:54:31.994Z,95214.66
2023-04-05T19:57:07.207Z,95212.94
2023-04-05T19:59:54.038Z,95209.56
2023-04-05T20:02:43.175Z,95212.91
2023-04-05T20:05:54.017Z,95211.19
2023-04-05T20:08:27.164Z,95214.50
2023-04-05T20:11:28.094Z,95209.47
2023-04-05T20:14:02.954Z,95211.97
2023-04-05T20:16:51.190Z,95201.91
2023-04-05T20:19:40.025Z,95204.31
2023-04-05T20:22:34.011Z,95205.16
2023-04-05T20:25:59.029Z,95201.00
2023-04-05T20:28:42.050Z,95207.66
2023-04-05T20:31:39.328Z,95203.53
2023-04-05T20:34:28.021Z,95207.63
2023-04-05T20:37:22.040Z,95195.00
2023-04-05T20:40:16.044Z,95193.25
2023-04-05T20:43:10.048Z,95196.56
2023-04-05T20:46:00.129Z,95191.47
2023-04-05T20:48:40.025Z,95192.25
2023-04-05T20:51:27.037Z,95193.00
2023-04-05T20:54:00.179Z,95192.97
2023-04-05T20:56:47.063Z,95196.28
2023-04-05T20:59:20.498Z,95196.28
2023-04-05T21:02:07.029Z,95196.94
2023-04-05T21:04:47.079Z,95194.22
2023-04-05T21:07:41.034Z,95196.69
2023-04-05T21:10:35.052Z,95193.16
2023-04-05T21:13:30.053Z,95189.69
2023-04-05T21:16:24.219Z,95192.03
2023-04-05T21:19:11.204Z,95191.97
2023-04-05T21:21:44.171Z,95184.25
2023-04-05T21:24:31.060Z,95183.31
2023-04-05T21:27:04.136Z,95177.38
2023-04-05T21:29:51.048Z,95178.16
2023-04-05T21:32:24.174Z,95179.75
2023-04-05T21:35:11.102Z,95183.00
2023-04-05T21:37:44.240Z,95182.06
2023-04-05T21:40:31.050Z,95181.94
2023-04-05T21:43:05.231Z,95173.50
2023-04-05T21:45:53.176Z,95170.97
2023-04-05T21:48:28.015Z,95166.66
2023-04-05T21:51:15.046Z,95164.94
2023-04-05T21:53:55.044Z,95171.56
2023-04-05T21:56:42.053Z,95163.06
2023-04-05T21:59:15.184Z,95163.81
2023-04-05T22:02:02.095Z,95152.91
2023-04-05T22:04:42.056Z,95162.00
2023-04-05T22:07:37.108Z,95156.84
2023-04-05T22:10:24.060Z,95158.41
2023-04-05T22:12:57.204Z,95149.97
2023-04-05T22:15:44.076Z,95153.25
2023-04-05T22:18:17.200Z,95154.94
2023-04-05T22:21:04.082Z,95155.66
2023-04-05T22:23:44.068Z,95152.25
2023-04-05T22:26:39.043Z,95148.72
2023-04-05T22:29:28.081Z,95151.19
2023-04-05T22:32:01.301Z,95149.47
2023-04-05T22:34:48.062Z,95143.56
2023-04-05T22:37:21.249Z,95154.38
2023-04-05T22:40:15.129Z,95151.84
2023-04-05T22:43:02.075Z,95152.63
2023-04-05T22:45:42.112Z,95149.28
2023-04-05T22:48:29.087Z,95157.47
2023-04-05T22:51:02.253Z,95152.38
2023-04-05T22:53:50.097Z,95152.31
2023-04-05T22:56:24.096Z,95149.81
2023-04-05T22:59:11.319Z,95152.28
2023-04-05T23:01:45.279Z,95149.66
2023-04-05T23:04:32.174Z,95152.09
2023-04-05T23:07:05.196Z,95154.56
2023-04-05T23:09:52.090Z,95156.09
2023-04-05T23:12:25.268Z,95159.31
2023-04-05T23:15:13.092Z,95150.94
2023-04-05T23:17:47.271Z,95139.91
2023-04-05T23:20:34.096Z,95149.13
2023-04-05T23:23:07.289Z,95148.28
2023-04-05T23:25:54.085Z,95148.25
2023-04-05T23:28:27.182Z,95145.69
2023-04-05T23:31:14.103Z,95153.22
2023-04-05T23:33:47.211Z,95154.03
2023-04-05T23:36:35.090Z,95149.81
2023-04-05T23:39:08.453Z,95146.47
2023-04-05T23:41:55.089Z,95142.19
2023-04-05T23:44:35.070Z,95140.44
2023-04-05T23:47:29.148Z,95129.50
2023-04-05T23:50:16.086Z,95126.09
2023-04-05T23:52:49.302Z,95113.53
2023-04-05T23:55:36.093Z,95116.81
2023-04-05T23:58:09.291Z,95120.22
